createdAt,value
2024-05-09T00:02:06.399Z,4.22
2024-05-09T00:07:12.105Z,4.35
2024-05-09T00:12:20.344Z,4.50
2024-05-09T00:17:26.342Z,4.10
2024-05-09T00:22:31.779Z,4.43
2024-05-09T00:27:40.131Z,3.85
2024-05-09T00:32:45.614Z,4.50
2024-05-09T00:37:51.403Z,5.00
2024-05-09T00:42:59.525Z,4.53
2024-05-09T00:48:09.683Z,4.60
2024-05-09T00:53:17.504Z,4.28
2024-05-09T00:58:27.735Z,4.90
2024-05-09T01:03:33.400Z,4.50
2024-05-09T01:08:39.455Z,4.60
2024-05-09T01:13:47.904Z,5.00
2024-05-09T01:18:53.940Z,4.90
2024-05-09T01:24:02.060Z,4.80
2024-05-09T01:29:08.045Z,4.85
2024-05-09T01:34:13.491Z,4.07
2024-05-09T01:39:21.724Z,4.25
2024-05-09T01:44:27.194Z,4.82
2024-05-09T01:49:33.828Z,4.35
2024-05-09T01:54:41.946Z,4.50
2024-05-09T01:59:47.341Z,4.72
2024-05-09T02:04:52.957Z,4.30
2024-05-09T02:10:01.343Z,4.15
2024-05-09T02:15:06.877Z,4.30
2024-05-09T02:20:18.754Z,4.20
2024-05-09T02:25:35.596Z,4.22
2024-05-09T02:30:42.548Z,4.03
2024-05-09T02:35:48.203Z,4.07
2024-05-09T02:40:56.248Z,3.70
2024-05-09T02:46:01.613Z,3.53
2024-05-09T02:51:07.856Z,3.65
2024-05-09T02:56:15.998Z,3.88
2024-05-09T03:01:21.682Z,3.75
2024-05-09T03:06:27.449Z,3.67
2024-05-09T03:11:35.997Z,3.70
2024-05-09T03:16:41.729Z,3.40
2024-05-09T03:21:47.386Z,2.92
2024-05-09T03:26:55.745Z,2.72
2024-05-09T03:32:03.357Z,2.90
2024-05-09T03:37:09.239Z,3.10
2024-05-09T03:42:17.265Z,3.20
2024-05-09T03:47:24.049Z,3.05
2024-05-09T03:52:29.611Z,3.05
2024-05-09T03:57:37.663Z,2.92
2024-05-09T04:02:45.836Z,3.40
2024-05-09T04:07:51.318Z,2.50
2024-05-09T04:12:59.474Z,2.08
2024-05-09T04:18:05.220Z,2.40
2024-05-09T04:23:14.384Z,2.58
2024-05-09T04:28:24.025Z,2.05
2024-05-09T04:33:30.021Z,2.10
2024-05-09T04:38:36.110Z,2.13
2024-05-09T04:43:44.319Z,1.95
2024-05-09T04:48:49.772Z,2.15
2024-05-09T04:53:55.227Z,1.85
2024-05-09T04:59:03.472Z,2.20
2024-05-09T05:04:08.934Z,2.22
2024-05-09T05:09:14.283Z,2.00
2024-05-09T05:14:22.314Z,1.80
2024-05-09T05:19:28.030Z,1.80
2024-05-09T05:24:33.431Z,1.30
2024-05-09T05:29:41.531Z,1.83
2024-05-09T05:34:47.127Z,1.60
2024-05-09T05:39:52.808Z,1.80
2024-05-09T05:45:00.839Z,1.45
2024-05-09T05:50:14.502Z,1.67
2024-05-09T05:55:26.235Z,1.40
2024-05-09T06:00:38.780Z,1.40
2024-05-09T06:05:47.088Z,1.20
2024-05-09T06:10:52.841Z,1.20
2024-05-09T06:16:02.652Z,1.30
2024-05-09T06:21:08.217Z,1.30
2024-05-09T06:26:13.644Z,1.45
2024-05-09T06:31:21.767Z,1.23
2024-05-09T06:36:27.284Z,1.20
2024-05-09T06:41:32.750Z,1.50
2024-05-09T06:46:42.236Z,1.20
2024-05-09T06:51:47.623Z,1.20
2024-05-09T06:56:53.064Z,1.10
2024-05-09T07:02:01.218Z,1.52
2024-05-09T07:07:09.502Z,1.30
2024-05-09T07:12:15.023Z,1.38
2024-05-09T07:17:23.611Z,1.20
2024-05-09T07:22:29.798Z,1.13
2024-05-09T07:27:35.212Z,1.25
2024-05-09T07:32:45.389Z,1.15
2024-05-09T07:37:51.066Z,1.20
2024-05-09T07:42:56.514Z,1.23
2024-05-09T07:53:37.269Z,1.17
2024-05-09T07:58:38.429Z,1.50
2024-05-09T08:03:46.771Z,1.40
2024-05-09T08:08:52.510Z,2.15
2024-05-09T08:13:58.222Z,2.28
2024-05-09T08:19:06.346Z,3.50
2024-05-09T08:24:11.926Z,1.73
2024-05-09T08:29:17.377Z,1.30
2024-05-09T08:34:25.732Z,1.35
2024-05-09T08:39:31.258Z,1.35
2024-05-09T08:44:39.354Z,1.48
2024-05-09T08:49:47.526Z,1.50
2024-05-09T08:54:54.950Z,1.33
2024-05-09T09:00:09.970Z,1.83
2024-05-09T09:05:21.789Z,1.55
2024-05-09T09:10:32.138Z,1.60
2024-05-09T09:15:50.058Z,1.90
2024-05-09T09:20:58.892Z,1.75
2024-05-09T09:26:04.698Z,1.50
2024-05-09T09:31:10.488Z,1.55
2024-05-09T09:36:19.287Z,1.77
2024-05-09T09:41:32.924Z,1.83
2024-05-09T09:46:39.833Z,1.98
2024-05-09T09:51:49.548Z,1.75
2024-05-09T09:56:55.690Z,1.60
2024-05-09T10:02:01.674Z,1.48
2024-05-09T10:07:13.175Z,1.73
2024-05-09T10:12:18.964Z,1.80
2024-05-09T10:17:24.733Z,1.85
2024-05-09T10:22:34.171Z,2.13
2024-05-09T10:27:39.991Z,1.95
2024-05-09T10:32:45.583Z,1.90
2024-05-09T10:37:56.131Z,2.00
2024-05-09T10:43:05.854Z,2.20
2024-05-09T10:48:12.292Z,1.90
2024-05-09T10:53:20.611Z,1.98
2024-05-09T10:58:26.750Z,2.00
2024-05-09T11:03:32.426Z,2.15
2024-05-09T11:08:42.142Z,2.00
2024-05-09T11:13:47.634Z,1.85
2024-05-09T11:18:58.955Z,2.13
2024-05-09T11:24:10.985Z,1.92
2024-05-09T11:29:19.524Z,1.83
2024-05-09T11:34:25.299Z,6.35
2024-05-09T11:39:33.904Z,1.90
2024-05-09T11:44:39.446Z,1.90
2024-05-09T11:49:46.587Z,2.40
2024-05-09T11:54:54.723Z,1.90
2024-05-09T12:00:00.746Z,1.90
2024-05-09T12:05:06.441Z,2.30
2024-05-09T12:10:19.636Z,1.85
2024-05-09T12:15:28.034Z,2.40
2024-05-09T12:20:49.602Z,1.90
2024-05-09T12:25:57.822Z,1.80
2024-05-09T12:31:03.514Z,1.90
2024-05-09T12:36:09.457Z,1.90
2024-05-09T12:41:17.921Z,2.03
2024-05-09T12:46:23.685Z,1.95
2024-05-09T12:51:31.275Z,1.65
2024-05-09T12:56:39.402Z,1.80
2024-05-09T13:01:44.816Z,2.30
2024-05-09T13:06:50.379Z,1.83
2024-05-09T13:11:58.513Z,2.22
2024-05-09T13:17:04.080Z,1.95
2024-05-09T13:22:09.729Z,1.98
2024-05-09T13:27:17.980Z,2.15
2024-05-09T13:32:23.534Z,2.00
2024-05-09T13:37:28.999Z,2.28
2024-05-09T13:42:37.234Z,2.20
2024-05-09T13:47:42.913Z,1.73
2024-05-09T13:52:48.499Z,1.73
2024-05-09T13:57:56.999Z,1.95
2024-05-09T14:03:02.579Z,1.80
2024-05-09T14:08:08.863Z,2.00
2024-05-09T14:13:17.280Z,2.00
2024-05-09T14:18:23.186Z,1.90
2024-05-09T14:23:28.589Z,1.73
2024-05-09T14:28:36.724Z,1.80
2024-05-09T14:33:42.135Z,1.92
2024-05-09T14:38:47.689Z,2.05
2024-05-09T14:43:55.757Z,2.00
2024-05-09T14:49:01.540Z,2.05
2024-05-09T14:54:07.076Z,2.03
2024-05-09T14:59:15.153Z,2.00
2024-05-09T15:04:20.678Z,1.75
2024-05-09T15:09:26.745Z,2.13
2024-05-09T15:14:34.859Z,1.92
2024-05-09T15:19:40.921Z,2.08
2024-05-09T15:24:48.050Z,2.25
2024-05-09T15:29:56.422Z,2.00
2024-05-09T15:35:01.892Z,1.98
2024-05-09T15:40:18.283Z,1.90
2024-05-09T15:45:32.221Z,2.35
2024-05-09T15:50:41.038Z,2.00
2024-05-09T15:55:47.908Z,1.95
2024-05-09T16:00:56.661Z,2.00
2024-05-09T16:06:02.447Z,2.38
2024-05-09T16:11:08.609Z,2.35
2024-05-09T16:16:16.927Z,2.28
2024-05-09T16:21:22.784Z,2.42
2024-05-09T16:26:28.464Z,2.33
2024-05-09T16:31:36.971Z,2.40
2024-05-09T16:36:44.270Z,2.50
2024-05-09T16:41:50.087Z,2.15
2024-05-09T16:46:58.488Z,2.38
2024-05-09T16:52:04.189Z,2.70
2024-05-09T16:57:10.206Z,2.47
2024-05-09T17:02:18.819Z,2.67
2024-05-09T17:07:24.903Z,2.50
2024-05-09T17:12:30.599Z,2.30
2024-05-09T17:17:39.080Z,2.60
2024-05-09T17:22:44.782Z,2.78
2024-05-09T17:27:50.730Z,2.80
2024-05-09T17:32:59.629Z,3.15
2024-05-09T17:38:05.454Z,3.00
2024-05-09T17:43:11.338Z,3.08
2024-05-09T17:48:20.586Z,2.50
2024-05-09T17:53:26.104Z,2.50
2024-05-09T17:58:32.092Z,3.15
2024-05-09T18:03:40.486Z,2.53
2024-05-09T18:08:46.402Z,2.88
2024-05-09T18:13:53.256Z,2.78
2024-05-09T18:19:01.966Z,3.13
2024-05-09T18:24:07.676Z,3.13
2024-05-09T18:29:13.704Z,3.45
2024-05-09T18:34:21.864Z,2.55
2024-05-09T18:39:27.741Z,2.90
2024-05-09T18:44:33.270Z,3.15
2024-05-09T18:49:41.737Z,2.70
2024-05-09T18:54:48.051Z,2.80
2024-05-09T18:59:53.787Z,3.03
2024-05-09T19:05:01.981Z,3.33
2024-05-09T19:10:21.857Z,3.60
2024-05-09T19:15:31.024Z,3.58
2024-05-09T19:20:39.646Z,3.88
2024-05-09T19:25:45.225Z,3.85
2024-05-09T19:30:50.948Z,4.25
2024-05-09T19:35:59.106Z,4.22
2024-05-09T19:41:04.803Z,4.70
2024-05-09T19:46:10.261Z,4.38
2024-05-09T19:51:18.755Z,4.18
2024-05-09T19:56:24.673Z,4.55
2024-05-09T20:01:30.370Z,5.10
2024-05-09T20:06:40.605Z,4.70
2024-05-09T20:11:46.312Z,4.28
2024-05-09T20:16:51.985Z,4.72
2024-05-09T20:22:00.568Z,3.80
2024-05-09T20:27:06.298Z,4.40
2024-05-09T20:32:12.010Z,4.18
2024-05-09T20:37:20.368Z,4.53
2024-05-09T20:42:25.760Z,4.63
2024-05-09T20:47:31.191Z,4.35
2024-05-09T20:52:39.439Z,4.65
2024-05-09T20:57:45.146Z,4.55
2024-05-09T21:02:50.619Z,4.82
2024-05-09T21:07:59.096Z,4.45
2024-05-09T21:13:05.269Z,3.88
2024-05-09T21:18:12.066Z,4.00
2024-05-09T21:23:20.120Z,3.95
2024-05-09T21:28:25.684Z,3.40
2024-05-09T21:33:31.260Z,3.20
2024-05-09T21:38:39.860Z,4.00
2024-05-09T21:43:45.250Z,3.67
2024-05-09T21:48:50.865Z,3.95
2024-05-09T21:53:59.153Z,3.65
2024-05-09T21:59:04.859Z,3.90
2024-05-09T22:04:11.275Z,4.25
2024-05-09T22:09:19.942Z,4.03
2024-05-09T22:14:25.394Z,4.07
2024-05-09T22:19:31.074Z,4.20
2024-05-09T22:24:39.338Z,3.85
2024-05-09T22:29:45.093Z,3.83
2024-05-09T22:34:50.510Z,3.72
2024-05-09T22:39:58.966Z,3.72
2024-05-09T22:45:04.438Z,3.28
2024-05-09T22:50:16.229Z,3.65
2024-05-09T22:55:30.579Z,3.85
2024-05-09T23:00:36.542Z,3.38
2024-05-09T23:05:41.982Z,3.30
2024-05-09T23:10:50.420Z,3.00
2024-05-09T23:15:55.795Z,2.95
2024-05-09T23:21:03.239Z,2.83
2024-05-09T23:26:11.402Z,2.92
2024-05-09T23:31:17.099Z,3.03
2024-05-09T23:36:22.845Z,2.70
2024-05-09T23:41:31.248Z,2.85
2024-05-09T23:46:36.655Z,3.10
2024-05-09T23:51:42.328Z,2.90
2024-05-09T23:56:50.695Z,2.50
